3DW weather

Downtown Airport
Springfield, Missouri, United States

Public forecast

Using degrees Fahrenheit for public forecast. Weather courtesy of forecast.io.

METAR (pilot weather report)

Closest report is Springfield Branson National Airport, 6.9 nm (12.8 km) WNW. Retrieved 2019/08/26 07:52 UTC (1 hour ago):

KSGF 260752Z AUTO 17009KT 10SM OVC004 23/22 A2980 RMK AO2 SLP081 T02280217

TAF (pilot weather forecast)

Closest forecast is Springfield Branson National Airport, 6.9 nm (12.8 km) WNW. Retrieved 2019/08/26 06:22 UTC (3 hours ago):

TAF KSGF 260520Z 2606/2706 17005KT P6SM SCT009 FM261000 16007KT P6SM BKN030 FM261500 17009KT P6SM OVC060 PROB30 2620/2624 4SM -SHRA BR BKN040 FM270100 20010KT 6SM -TSRA BR OVC050CB FM270500 24008KT P6SM -SHRA OVC025